createdAt,value
2019-04-26T00:05:33.951Z,15.95
2019-04-26T00:10:34.565Z,16.00
2019-04-26T00:15:45.834Z,15.49
2019-04-26T00:20:49.987Z,15.22
2019-04-26T00:25:54.574Z,15.21
2019-04-26T00:30:58.625Z,15.55
2019-04-26T00:36:02.787Z,15.37
2019-04-26T01:03:12.287Z,14.99
2019-04-26T01:08:17.066Z,14.77
2019-04-26T01:13:31.287Z,14.56
2019-04-26T01:35:24.368Z,14.68
2019-04-26T01:40:28.530Z,14.55
2019-04-26T01:57:07.780Z,14.72
2019-04-26T02:02:31.922Z,14.71
2019-04-26T02:07:43.091Z,14.55
2019-04-26T02:18:24.091Z,14.54
2019-04-26T02:23:38.166Z,14.54
2019-04-26T02:28:42.266Z,14.51
2019-04-26T02:56:28.228Z,14.07
2019-04-26T03:01:34.499Z,13.88
2019-04-26T03:18:21.690Z,13.35
2019-04-26T03:29:41.992Z,13.42
2019-04-26T03:52:20.357Z,13.01
2019-04-26T04:20:24.579Z,13.34
2019-04-26T04:25:50.729Z,13.42
2019-04-26T04:36:53.732Z,13.80
2019-04-26T04:53:53.151Z,14.74
2019-04-26T05:05:11.536Z,16.68
2019-04-26T05:16:33.045Z,21.29
2019-04-26T05:27:55.900Z,24.03
2019-04-26T05:33:38.258Z,26.20
2019-04-26T05:39:20.328Z,27.07
2019-04-26T05:50:41.961Z,27.45
2019-04-26T06:13:28.248Z,28.55
2019-04-26T06:18:41.740Z,29.45
2019-04-26T06:24:16.899Z,26.31
2019-04-26T06:29:32.631Z,24.55
2019-04-26T06:34:59.799Z,23.21
2019-04-26T06:40:27.240Z,23.41
2019-04-26T06:45:58.643Z,23.31
2019-04-26T06:51:23.285Z,23.66
2019-04-26T06:56:57.411Z,24.32
2019-04-26T07:02:14.673Z,24.14
2019-04-26T07:07:35.329Z,24.05
2019-04-26T07:12:45.719Z,23.69
2019-04-26T07:18:31.379Z,23.94
2019-04-26T07:24:13.747Z,24.18
2019-04-26T07:30:12.511Z,23.79
2019-04-26T07:35:30.422Z,23.83
2019-04-26T07:41:11.465Z,23.50
2019-04-26T07:47:08.750Z,23.00
2019-04-26T07:52:44.027Z,23.11
2019-04-26T07:58:21.764Z,22.93
2019-04-26T08:03:29.821Z,22.78
2019-04-26T08:08:42.504Z,22.94
2019-04-26T08:14:15.871Z,23.42
2019-04-26T08:19:22.655Z,23.99
2019-04-26T08:24:29.974Z,24.73
2019-04-26T08:29:37.349Z,25.59
2019-04-26T08:34:44.989Z,25.81
2019-04-26T08:39:51.897Z,25.72
2019-04-26T08:44:57.374Z,25.70
2019-04-26T08:50:02.146Z,26.16
2019-04-26T08:55:08.903Z,26.80
2019-04-26T09:00:16.851Z,27.08
2019-04-26T09:05:24.482Z,27.59
2019-04-26T09:10:31.271Z,30.00
2019-04-26T09:16:02.288Z,29.32
2019-04-26T09:21:06.298Z,31.11
2019-04-26T09:26:12.506Z,28.81
2019-04-26T09:31:19.658Z,27.73
2019-04-26T09:36:21.857Z,27.07
2019-04-26T09:41:26.486Z,27.15
2019-04-26T09:46:31.973Z,29.86
2019-04-26T09:51:39.073Z,32.80
2019-04-26T09:56:41.699Z,33.37
2019-04-26T10:01:45.700Z,33.03
2019-04-26T10:06:50.120Z,32.88
2019-04-26T10:11:54.156Z,32.56
2019-04-26T10:16:58.178Z,33.14
2019-04-26T10:22:02.146Z,33.19
2019-04-26T10:27:06.186Z,32.13
2019-04-26T10:32:10.638Z,32.14
2019-04-26T10:37:15.116Z,31.59
2019-04-26T10:42:19.101Z,32.01
2019-04-26T10:47:23.645Z,30.90
2019-04-26T10:52:27.878Z,30.95
2019-04-26T10:57:32.294Z,30.95
2019-04-26T11:02:36.588Z,31.04
2019-04-26T11:07:40.927Z,30.02
2019-04-26T11:12:44.999Z,30.39
2019-04-26T11:17:50.004Z,30.27
2019-04-26T11:22:54.214Z,29.64
2019-04-26T11:27:58.348Z,28.16
2019-04-26T11:33:02.338Z,28.18
2019-04-26T11:38:06.704Z,27.77
2019-04-26T11:43:15.856Z,28.14
2019-04-26T11:48:18.541Z,28.07
2019-04-26T11:53:22.560Z,26.38
2019-04-26T11:58:26.740Z,27.67
2019-04-26T12:03:30.761Z,28.44
2019-04-26T12:08:36.537Z,28.76
2019-04-26T12:13:40.625Z,27.94
2019-04-26T12:18:45.700Z,28.07
2019-04-26T12:23:59.934Z,28.30
2019-04-26T12:29:03.963Z,28.98
2019-04-26T12:34:08.013Z,27.08
2019-04-26T12:39:12.041Z,27.21
2019-04-26T12:44:16.095Z,26.57
2019-04-26T12:54:34.472Z,26.17
2019-04-26T12:59:44.485Z,26.90
2019-04-26T13:04:55.635Z,27.03
2019-04-26T13:10:01.107Z,27.61
2019-04-26T13:15:52.610Z,27.21
2019-04-26T13:20:58.485Z,27.45
2019-04-26T13:26:30.333Z,27.53
2019-04-26T13:31:38.640Z,27.87
2019-04-26T13:37:03.026Z,27.81
2019-04-26T13:42:13.700Z,27.37
2019-04-26T13:47:27.547Z,26.74
2019-04-26T13:52:33.304Z,26.72
2019-04-26T13:57:40.248Z,26.19
2019-04-26T14:02:48.548Z,25.34
2019-04-26T14:07:52.608Z,25.68
2019-04-26T14:18:12.288Z,25.64
2019-04-26T14:23:16.388Z,25.76
2019-04-26T14:28:30.965Z,26.22
2019-04-26T14:33:34.971Z,26.52
2019-04-26T14:38:40.085Z,26.28
2019-04-26T14:43:52.730Z,26.02
2019-04-26T14:49:05.759Z,25.78
2019-04-26T14:54:16.556Z,24.35
2019-04-26T14:59:22.102Z,23.83
2019-04-26T15:04:35.285Z,24.77
2019-04-26T15:09:39.659Z,25.35
2019-04-26T15:14:43.755Z,26.40
2019-04-26T15:19:47.793Z,26.09
2019-04-26T15:24:52.305Z,26.06
2019-04-26T15:35:18.246Z,25.65
2019-04-26T15:40:22.617Z,25.31
2019-04-26T15:45:38.851Z,25.46
2019-04-26T15:50:51.854Z,25.13
2019-04-26T15:56:03.235Z,25.31
2019-04-26T16:01:10.919Z,25.38
2019-04-26T16:06:23.522Z,25.35
2019-04-26T16:11:36.678Z,24.89
2019-04-26T16:16:42.318Z,24.66
2019-04-26T16:21:55.228Z,24.23
2019-04-26T16:27:03.683Z,22.52
2019-04-26T16:32:08.275Z,22.09
2019-04-26T16:37:15.017Z,22.02
2019-04-26T16:42:27.917Z,21.65
2019-04-26T16:47:35.382Z,21.78
2019-04-26T16:52:47.714Z,21.62
2019-04-26T16:57:58.241Z,21.26
2019-04-26T17:03:07.902Z,20.59
2019-04-26T17:08:43.353Z,20.05
2019-04-26T17:13:50.616Z,19.68
2019-04-26T17:18:49.462Z,19.36
2019-04-26T17:23:55.193Z,19.17
2019-04-26T17:28:59.886Z,18.89
2019-04-26T17:34:05.347Z,18.77
2019-04-26T17:39:10.925Z,18.54
2019-04-26T17:44:21.825Z,18.19
2019-04-26T17:49:27.277Z,17.54
2019-04-26T17:54:45.737Z,17.40
2019-04-26T17:59:36.802Z,17.27
2019-04-26T18:04:42.461Z,17.10
2019-04-26T18:09:46.967Z,16.90
2019-04-26T18:14:51.640Z,16.61
2019-04-26T18:20:00.678Z,16.47
2019-04-26T18:25:05.892Z,16.45
2019-04-26T18:30:12.242Z,16.36
2019-04-26T18:35:16.946Z,16.29
2019-04-26T18:40:23.088Z,16.13
2019-04-26T18:45:29.678Z,16.13
2019-04-26T18:50:36.406Z,16.01
2019-04-26T18:55:41.137Z,15.90
2019-04-26T19:00:46.097Z,15.88
2019-04-26T19:05:51.045Z,15.81
2019-04-26T19:11:01.035Z,15.82
2019-04-26T19:16:03.685Z,15.83
2019-04-26T19:21:08.148Z,15.82
2019-04-26T19:26:13.649Z,15.95
2019-04-26T19:31:19.230Z,15.82
2019-04-26T19:36:29.359Z,15.56
2019-04-26T19:41:33.087Z,15.57
2019-04-26T19:46:37.511Z,15.54
2019-04-26T19:51:43.633Z,15.58
2019-04-26T19:56:48.641Z,15.58
2019-04-26T20:01:55.181Z,15.57
2019-04-26T20:06:59.004Z,15.59
2019-04-26T20:12:03.534Z,15.37
2019-04-26T20:17:07.904Z,15.39
2019-04-26T20:22:12.269Z,15.22
2019-04-26T20:27:20.581Z,15.11
2019-04-26T20:32:24.534Z,15.04
2019-04-26T20:37:29.158Z,15.02
2019-04-26T20:42:33.586Z,14.89
2019-04-26T20:47:38.156Z,14.77
2019-04-26T20:52:45.194Z,14.75
2019-04-26T20:57:48.642Z,14.74
2019-04-26T21:03:00.794Z,14.43
2019-04-26T21:07:59.563Z,13.89
2019-04-26T21:13:04.060Z,13.58
2019-04-26T21:18:26.268Z,13.28
2019-04-26T21:23:34.982Z,12.99
2019-04-26T21:28:38.029Z,12.60
2019-04-26T21:33:42.946Z,12.39
2019-04-26T21:38:46.994Z,12.34
2019-04-26T21:43:51.014Z,12.25
2019-04-26T21:48:55.107Z,12.26
2019-04-26T21:53:59.275Z,12.18
2019-04-26T21:59:03.822Z,12.04
2019-04-26T22:04:07.917Z,11.82
2019-04-26T22:09:15.213Z,11.74
2019-04-26T22:14:21.418Z,11.72
2019-04-26T22:19:28.027Z,11.55
2019-04-26T22:24:30.787Z,11.58
2019-04-26T22:29:34.935Z,11.48
2019-04-26T22:34:41.306Z,11.33
2019-04-26T22:39:44.830Z,11.23
2019-04-26T22:44:48.921Z,11.05
2019-04-26T22:49:52.949Z,11.03
2019-04-26T22:54:57.114Z,10.98
2019-04-26T23:00:01.156Z,10.87
2019-04-26T23:05:06.929Z,10.83
2019-04-26T23:10:13.007Z,10.65
2019-04-26T23:15:17.748Z,10.50
2019-04-26T23:20:23.395Z,10.37
2019-04-26T23:25:27.707Z,10.27
2019-04-26T23:30:32.637Z,10.27
2019-04-26T23:35:43.360Z,10.39
2019-04-26T23:40:43.066Z,10.31
2019-04-26T23:45:48.267Z,10.27
2019-04-26T23:50:53.826Z,10.24
2019-04-26T23:55:57.914Z,10.24
